Time;durP1;ratioP1;P1;durP2;ratioP2;P2;SDS_P1;SDS_P2;PMS_P1;PMS_P2;Temp;Humidity;BMP_temperature;BMP_pressure;BME280_temperature;BME280_humidity;BME280_pressure;Samples;Min_cycle;Max_cycle;Signal;HPM_P1;HPM_P2
2023/07/19 00:00:44;;;;;;;9.32;2.90;;;;;;;;;;5057495;28;20475;-77
2023/07/19 00:03:10;;;;;;;8.45;2.60;;;;;;;;;;5052841;28;20023;-77
2023/07/19 00:05:36;;;;;;;10.45;3.75;;;;;;;;;;5052485;28;20059;-78
2023/07/19 00:08:03;;;;;;;12.88;3.25;;;;;;;;;;5055798;28;20104;-77
2023/07/19 00:10:30;;;;;;;9.65;2.97;;;;;;;;;;5054356;28;20013;-79
2023/07/19 00:12:56;;;;;;;9.65;2.90;;;;;;;;;;5054645;28;20021;-78
2023/07/19 00:15:22;;;;;;;7.68;2.80;;;;;;;;;;5059200;28;20023;-78
2023/07/19 00:17:48;;;;;;;11.65;3.15;;;;;;;;;;5055083;28;20015;-78
2023/07/19 00:20:15;;;;;;;7.80;2.92;;;;;;;;;;5059640;28;20043;-77
2023/07/19 00:22:41;;;;;;;8.50;3.28;;;;;;;;;;5057378;28;20474;-78
2023/07/19 00:25:08;;;;;;;7.95;3.60;;;;;;;;;;5054450;28;20095;-78
2023/07/19 00:27:34;;;;;;;11.77;3.63;;;;;;;;;;5052470;28;20375;-77
2023/07/19 00:30:00;;;;;;;8.07;3.53;;;;;;;;;;5053833;28;20362;-77
2023/07/19 00:32:26;;;;;;;10.73;3.80;;;;;;;;;;5052728;28;20029;-78
2023/07/19 00:34:52;;;;;;;11.40;3.70;;;;;;;;;;5053851;28;20025;-78
2023/07/19 00:37:18;;;;;;;15.80;3.67;;;;;;;;;;5053450;28;20017;-77
2023/07/19 00:39:44;;;;;;;12.75;3.40;;;;;;;;;;5053277;28;20374;-78
2023/07/19 00:42:11;;;;;;;7.28;3.35;;;;;;;;;;5054360;28;20086;-78
2023/07/19 00:44:37;;;;;;;6.55;3.33;;;;;;;;;;5053223;28;20400;-78
2023/07/19 00:47:03;;;;;;;12.18;3.90;;;;;;;;;;5052425;28;20544;-78
2023/07/19 00:49:31;;;;;;;12.18;3.78;;;;;;;;;;5054174;28;20021;-78
2023/07/19 00:51:57;;;;;;;14.23;3.47;;;;;;;;;;5070187;28;20121;-79
2023/07/19 00:54:23;;;;;;;5.80;3.25;;;;;;;;;;5074094;28;20029;-78
2023/07/19 00:56:49;;;;;;;8.52;3.95;;;;;;;;;;5074046;28;20017;-78
2023/07/19 00:59:16;;;;;;;11.68;4.28;;;;;;;;;;5072465;28;20474;-78
2023/07/19 01:01:45;;;;;;;13.57;3.88;;;;;;;;;;5073709;28;20030;-78
2023/07/19 01:04:12;;;;;;;9.68;4.10;;;;;;;;;;5072590;28;20012;-78
2023/07/19 01:06:38;;;;;;;7.97;3.95;;;;;;;;;;5073854;28;20027;-78
2023/07/19 01:09:04;;;;;;;11.10;3.70;;;;;;;;;;5073730;28;20028;-78
2023/07/19 01:11:31;;;;;;;22.95;4.22;;;;;;;;;;5073801;28;20024;-78
2023/07/19 01:13:57;;;;;;;12.35;4.18;;;;;;;;;;5064725;28;20475;-78
2023/07/19 01:16:23;;;;;;;7.70;3.22;;;;;;;;;;5051235;28;20516;-78
2023/07/19 01:18:50;;;;;;;6.28;3.30;;;;;;;;;;5051843;28;20363;-78
2023/07/19 01:21:16;;;;;;;4.97;3.30;;;;;;;;;;5056710;28;20021;-78
2023/07/19 01:23:42;;;;;;;7.65;3.65;;;;;;;;;;5053507;28;20099;-78
2023/07/19 01:26:08;;;;;;;6.68;3.63;;;;;;;;;;5053369;28;20536;-78
2023/07/19 01:28:34;;;;;;;7.10;3.80;;;;;;;;;;5052898;28;20017;-78
2023/07/19 01:31:04;;;;;;;8.95;3.33;;;;;;;;;;5058684;28;20037;-78
2023/07/19 01:33:30;;;;;;;11.18;3.95;;;;;;;;;;5053088;28;20104;-78
2023/07/19 01:35:56;;;;;;;8.07;4.38;;;;;;;;;;5053579;28;20021;-78
2023/07/19 01:38:22;;;;;;;8.43;3.83;;;;;;;;;;5048932;28;20362;-78
2023/07/19 01:40:48;;;;;;;6.72;3.22;;;;;;;;;;5052908;28;20459;-78
2023/07/19 01:43:14;;;;;;;8.73;3.70;;;;;;;;;;5052831;28;20459;-78
2023/07/19 01:45:41;;;;;;;9.38;3.28;;;;;;;;;;5051357;28;20039;-78
2023/07/19 01:48:08;;;;;;;9.35;3.47;;;;;;;;;;5052048;28;20045;-79
2023/07/19 01:50:34;;;;;;;11.23;3.60;;;;;;;;;;5051783;28;20669;-78
2023/07/19 01:53:00;;;;;;;6.50;3.40;;;;;;;;;;5054447;28;20520;-78
2023/07/19 01:55:26;;;;;;;10.05;3.08;;;;;;;;;;5061041;28;20020;-78
2023/07/19 01:57:52;;;;;;;9.70;3.60;;;;;;;;;;5055331;28;20448;-78
2023/07/19 02:00:18;;;;;;;4.70;2.80;;;;;;;;;;5055333;28;20027;-78
2023/07/19 02:02:44;;;;;;;10.85;3.10;;;;;;;;;;5056964;28;20021;-78
2023/07/19 02:05:11;;;;;;;9.88;3.15;;;;;;;;;;5062194;28;20029;-78
2023/07/19 02:07:37;;;;;;;9.45;3.40;;;;;;;;;;5061332;28;20021;-78
2023/07/19 02:10:03;;;;;;;8.93;3.17;;;;;;;;;;5057733;28;20344;-78
2023/07/19 02:12:30;;;;;;;5.07;2.92;;;;;;;;;;5055968;28;20532;-78
2023/07/19 02:14:56;;;;;;;6.22;3.45;;;;;;;;;;5055042;28;20024;-78
2023/07/19 02:17:22;;;;;;;8.52;2.53;;;;;;;;;;5056022;28;20020;-78
2023/07/19 02:19:48;;;;;;;15.88;3.40;;;;;;;;;;5056528;28;20038;-78
2023/07/19 02:22:17;;;;;;;9.10;3.15;;;;;;;;;;5054320;28;20078;-78
2023/07/19 02:24:43;;;;;;;11.68;3.15;;;;;;;;;;5052600;28;20029;-78
2023/07/19 02:27:09;;;;;;;8.05;3.58;;;;;;;;;;5053433;28;20017;-78
2023/07/19 02:29:36;;;;;;;6.00;3.10;;;;;;;;;;5066531;28;20395;-78
2023/07/19 02:32:04;;;;;;;7.13;3.30;;;;;;;;;;5055420;28;20025;-78
2023/07/19 02:34:31;;;;;;;8.07;3.55;;;;;;;;;;5054556;28;20614;-78
2023/07/19 02:36:58;;;;;;;8.50;3.65;;;;;;;;;;5059088;28;20024;-78
2023/07/19 02:39:27;;;;;;;8.40;4.20;;;;;;;;;;5055661;28;20279;-78
2023/07/19 02:41:54;;;;;;;6.70;3.60;;;;;;;;;;5055659;28;20098;-78
2023/07/19 02:44:20;;;;;;;13.35;4.13;;;;;;;;;;5053417;28;20363;-78
2023/07/19 02:46:46;;;;;;;14.63;3.92;;;;;;;;;;5063226;28;20025;-78
2023/07/19 02:49:13;;;;;;;7.35;3.85;;;;;;;;;;5055310;28;20043;-77
2023/07/19 02:51:39;;;;;;;7.47;3.67;;;;;;;;;;5054205;28;20102;-77
2023/07/19 02:54:05;;;;;;;8.23;3.67;;;;;;;;;;5055382;28;20025;-77
2023/07/19 02:56:31;;;;;;;11.20;4.22;;;;;;;;;;5055661;28;20020;-77
2023/07/19 02:58:57;;;;;;;6.28;3.33;;;;;;;;;;5053884;28;20025;-77
2023/07/19 03:01:23;;;;;;;5.68;3.28;;;;;;;;;;5055205;28;20028;-77
2023/07/19 03:03:50;;;;;;;9.15;4.00;;;;;;;;;;5055394;28;20430;-78
2023/07/19 03:06:16;;;;;;;7.30;3.47;;;;;;;;;;5054930;28;20466;-78
2023/07/19 03:08:43;;;;;;;9.35;3.90;;;;;;;;;;5054921;28;20130;-78
2023/07/19 03:11:09;;;;;;;16.92;4.18;;;;;;;;;;5058414;28;20021;-78
2023/07/19 03:13:36;;;;;;;7.28;4.00;;;;;;;;;;5055366;28;20058;-78
2023/07/19 03:16:02;;;;;;;8.95;4.15;;;;;;;;;;5058895;28;20021;-78
2023/07/19 03:18:28;;;;;;;11.65;4.25;;;24.50;99.90;;;;;;5058237;28;20456;-78
2023/07/19 03:21:01;;;;;;;8.98;4.03;;;24.40;99.90;;;;;;5058456;28;20025;-78
2023/07/19 03:23:32;;;;;;;14.02;4.47;;;24.30;99.90;;;;;;5054703;28;20478;-78
2023/07/19 03:25:58;;;;;;;9.27;3.83;;;24.30;99.90;;;;;;5060686;28;20045;-78
2023/07/19 03:28:29;;;;;;;13.70;4.50;;;24.30;99.90;;;;;;5054083;28;20484;-78
2023/07/19 03:30:55;;;;;;;20.58;6.22;;;24.30;99.90;;;;;;5053752;28;20032;-78
2023/07/19 03:33:25;;;;;;;15.20;5.32;;;24.10;99.90;;;;;;5056023;28;20051;-78
2023/07/19 03:35:50;;;;;;;20.67;6.80;;;24.00;99.90;;;;;;5054141;28;20024;-78
2023/07/19 03:38:18;;;;;;;15.10;5.82;;;24.00;99.90;;;;;;5057423;28;20037;-78
2023/07/19 03:40:44;;;;;;;17.35;6.00;;;24.00;99.90;;;;;;5055513;28;20017;-78
2023/07/19 03:43:10;;;;;;;24.70;6.32;;;24.00;99.90;;;;;;5054995;28;20025;-78
2023/07/19 03:45:36;;;;;;;13.93;5.63;;;23.90;99.90;;;;;;5053307;28;20044;-78
2023/07/19 03:48:02;;;;;;;15.23;6.78;;;23.90;99.90;;;;;;5056825;28;20124;-78
2023/07/19 03:50:27;;;;;;;23.05;6.90;;;23.80;99.90;;;;;;5053041;28;20186;-79
2023/07/19 03:52:53;;;;;;;18.02;6.63;;;23.80;99.90;;;;;;5054048;28;20041;-79
2023/07/19 03:55:20;;;;;;;18.42;7.32;;;23.80;99.90;;;;;;5052596;28;20024;-78
2023/07/19 03:57:47;;;;;;;19.85;7.60;;;23.80;99.90;;;;;;5054316;28;20048;-78
2023/07/19 04:00:13;;;;;;;21.08;7.63;;;23.80;99.90;;;;;;5054350;28;20021;-78
2023/07/19 04:02:38;;;;;;;18.50;6.97;;;23.80;99.90;;;;;;5059160;28;20101;-78
2023/07/19 04:05:04;;;;;;;24.17;7.03;;;23.70;99.90;;;;;;5056889;28;20048;-78
2023/07/19 04:07:30;;;;;;;17.63;7.40;;;23.60;99.90;;;;;;5054324;28;20016;-78
2023/07/19 04:09:56;;;;;;;24.95;8.18;;;23.50;99.90;;;;;;5053821;28;20349;-78
2023/07/19 04:12:22;;;;;;;27.83;9.23;;;23.60;99.90;;;;;;5052704;28;20024;-78
2023/07/19 04:14:48;;;;;;;18.70;8.43;;;23.40;99.90;;;;;;5056440;28;20020;-77
2023/07/19 04:17:14;;;;;;;20.63;7.88;;;23.40;99.90;;;;;;5052298;28;20048;-78
2023/07/19 04:19:39;;;;;;;16.45;7.45;;;23.50;99.90;;;;;;5053493;28;20078;-78
2023/07/19 04:22:05;;;;;;;16.48;7.38;;;23.40;99.90;;;;;;5058154;28;20072;-78
2023/07/19 04:24:31;;;;;;;10.13;5.20;;;23.40;99.90;;;;;;5057860;28;20025;-78
2023/07/19 04:26:57;;;;;;;11.65;4.65;;;23.50;99.90;;;;;;5051993;28;20021;-78
2023/07/19 04:29:23;;;;;;;19.25;4.00;;;23.50;99.90;;;;;;5052749;28;20066;-78
2023/07/19 04:31:49;;;;;;;12.55;3.60;;;23.50;99.90;;;;;;5054008;28;20029;-78
2023/07/19 04:34:15;;;;;;;13.88;4.10;;;23.50;99.90;;;;;;5054406;28;20040;-78
2023/07/19 04:36:43;;;;;;;9.13;3.58;;;23.60;99.90;;;;;;5054140;28;20052;-78
2023/07/19 04:39:09;;;;;;;10.45;3.28;;;23.60;99.90;;;;;;5054234;28;20028;-78
2023/07/19 04:41:35;;;;;;;8.75;3.30;;;23.60;99.90;;;;;;5053236;28;20149;-78
2023/07/19 04:44:00;;;;;;;9.50;3.05;;;23.70;99.90;;;;;;5054031;28;20371;-78
2023/07/19 04:46:26;;;;;;;13.02;3.30;;;23.70;99.90;;;;;;5054062;28;20035;-79
2023/07/19 04:48:52;;;;;;;10.30;3.30;;;23.70;99.90;;;;;;5052739;28;20045;-78
2023/07/19 04:51:18;;;;;;;10.35;3.17;;;23.70;99.90;;;;;;5052596;28;20083;-78
2023/07/19 04:53:43;;;;;;;15.95;3.70;;;23.80;99.90;;;;;;5054010;28;20067;-78
2023/07/19 04:56:09;;;;;;;6.53;3.40;;;23.80;99.90;;;;;;5053567;28;20021;-78
2023/07/19 04:58:35;;;;;;;7.93;3.03;;;23.90;99.90;;;;;;5053557;28;20021;-79
2023/07/19 05:01:05;;;;;;;9.88;3.13;;;23.90;99.90;;;;;;5053599;28;20467;-79
2023/07/19 05:03:31;;;;;;;7.28;2.15;;;23.90;99.90;;;;;;5053628;28;20404;-79
2023/07/19 05:05:57;;;;;;;13.35;3.08;;;23.90;99.90;;;;;;5052404;28;20032;-78
2023/07/19 05:08:23;;;;;;;7.05;3.03;;;24.00;99.90;;;;;;5052525;28;20024;-79
2023/07/19 05:10:49;;;;;;;6.18;2.40;;;24.00;99.90;;;;;;5053276;28;20021;-79
2023/07/19 05:13:14;;;;;;;6.28;2.28;;;24.20;99.90;;;;;;5054242;28;20033;-78
2023/07/19 05:15:40;;;;;;;8.85;2.30;;;24.20;99.90;;;;;;5053690;28;20095;-78
2023/07/19 05:18:06;;;;;;;8.02;2.28;;;24.40;99.90;;;;;;5053457;28;20029;-78
2023/07/19 05:20:32;;;;;;;9.02;2.45;;;;;;;;;;5052961;28;20348;-78
2023/07/19 05:22:58;;;;;;;5.65;2.20;;;;;;;;;;5053172;28;20364;-78
2023/07/19 05:25:24;;;;;;;9.95;2.40;;;;;;;;;;5060622;28;20593;-78
2023/07/19 05:27:50;;;;;;;6.30;2.47;;;;;;;;;;5062316;28;20021;-78
2023/07/19 05:30:17;;;;;;;8.80;2.15;;;;;;;;;;5074939;28;20008;-78
2023/07/19 05:32:43;;;;;;;5.68;2.25;;;;;;;;;;5076054;28;20016;-77
2023/07/19 05:35:09;;;;;;;6.85;2.00;;;;;;;;;;5077713;28;20040;-78
2023/07/19 05:37:35;;;;;;;9.45;2.03;;;;;;;;;;5077433;28;20532;-78
2023/07/19 05:40:03;;;;;;;4.55;1.90;;;;;;;;;;5075667;28;20463;-78
2023/07/19 05:42:29;;;;;;;6.20;1.75;;;;;;;;;;5077510;28;20016;-78
2023/07/19 05:44:55;;;;;;;5.35;1.85;;;;;;;;;;5077588;28;20024;-79
2023/07/19 05:47:22;;;;;;;7.05;2.03;;;;;;;;;;5077477;28;20451;-78
2023/07/19 05:49:48;;;;;;;10.77;1.75;;;;;;;;;;5077124;28;20016;-79
2023/07/19 05:52:14;;;;;;;4.78;1.60;;;;;;;;;;5077192;28;20099;-79
2023/07/19 05:54:40;;;;;;;6.20;1.48;;;;;;;;;;5077194;28;20025;-78
2023/07/19 05:57:06;;;;;;;5.78;2.58;;;;;;;;;;5076885;28;20024;-79
2023/07/19 05:59:32;;;;;;;9.82;1.60;;;;;;;;;;5077319;28;20149;-78
2023/07/19 06:01:59;;;;;;;6.90;1.60;;;;;;;;;;5077365;28;20033;-78
2023/07/19 06:04:25;;;;;;;8.75;1.92;;;;;;;;;;5076841;28;20029;-79
2023/07/19 06:06:51;;;;;;;5.78;1.45;;;;;;;;;;5076734;28;20082;-79
2023/07/19 06:09:17;;;;;;;5.60;1.55;;;;;;;;;;5057097;28;20455;-78
2023/07/19 06:11:44;;;;;;;3.45;1.23;;;;;;;;;;5056843;28;20025;-79
2023/07/19 06:14:11;;;;;;;8.50;1.77;;;;;;;;;;5056463;28;20025;-79
2023/07/19 06:16:39;;;;;;;3.55;1.48;;;;;;;;;;5072093;28;20024;-79
2023/07/19 06:19:05;;;;;;;6.97;1.48;;;;;;;;;;5076951;28;20460;-79
2023/07/19 06:21:31;;;;;;;7.95;1.95;;;;;;;;;;5076929;28;20024;-79
2023/07/19 06:23:58;;;;;;;5.20;1.60;;;;;;;;;;5070572;28;20025;-79
2023/07/19 06:26:24;;;;;;;6.68;1.73;;;;;;;;;;5056833;28;20059;-79
2023/07/19 06:28:50;;;;;;;7.38;1.85;;;;;;;;;;5056460;28;20017;-79
2023/07/19 06:31:16;;;;;;;11.00;1.55;;;;;;;;;;5056762;28;20108;-79
2023/07/19 06:33:42;;;;;;;5.00;1.63;;;;;;;;;;5056370;28;20025;-79
2023/07/19 06:36:09;;;;;;;5.82;1.60;;;;;;;;;;5056586;28;20025;-79
2023/07/19 06:38:37;;;;;;;6.45;1.88;;;;;;;;;;5056551;28;20159;-79
2023/07/19 06:41:04;;;;;;;3.40;1.70;;;;;;;;;;5056460;28;20459;-79
2023/07/19 06:43:30;;;;;;;4.55;1.65;;;;;;;;;;5055258;28;20021;-79
2023/07/19 06:45:57;;;;;;;7.78;1.65;;;;;;;;;;5056033;28;20345;-79
2023/07/19 06:48:23;;;;;;;10.75;1.70;;;;;;;;;;5056549;28;20463;-79
2023/07/19 06:50:50;;;;;;;8.68;2.03;;;;;;;;;;5056027;28;20048;-79
2023/07/19 06:53:16;;;;;;;12.70;2.55;;;;;;;;;;5054860;28;20471;-79
2023/07/19 06:55:42;;;;;;;6.85;2.65;;;;;;;;;;5055993;28;20071;-78
2023/07/19 06:58:09;;;;;;;8.48;1.73;;;;;;;;;;5055567;28;20138;-79
2023/07/19 07:00:35;;;;;;;8.35;1.70;;;;;;;;;;5056316;28;20021;-79
2023/07/19 07:03:03;;;;;;;5.68;1.40;;;;;;;;;;5056171;28;20079;-79
2023/07/19 07:05:30;;;;;;;7.78;1.88;;;;;;;;;;5056179;28;20104;-78
2023/07/19 07:07:56;;;;;;;8.38;1.58;;;;;;;;;;5055971;28;20021;-78
2023/07/19 07:10:22;;;;;;;6.03;1.77;;;;;;;;;;5055747;28;20016;-78
2023/07/19 07:12:49;;;;;;;6.93;1.95;;;;;;;;;;5055762;28;20029;-79
2023/07/19 07:15:15;;;;;;;7.25;1.48;;;;;;;;;;5054520;28;20033;-79
2023/07/19 07:17:41;;;;;;;5.03;1.80;;;;;;;;;;5066156;28;20021;-79
2023/07/19 07:20:08;;;;;;;10.10;1.60;;;;;;;;;;5074427;28;20458;-79
2023/07/19 07:22:34;;;;;;;9.00;1.98;;;;;;;;;;5075904;28;20042;-79
2023/07/19 07:25:00;;;;;;;6.93;1.40;;;;;;;;;;5075218;28;20032;-79
2023/07/19 07:27:29;;;;;;;9.13;1.60;;;;;;;;;;5075702;28;20443;-78
2023/07/19 07:29:55;;;;;;;7.43;1.80;;;;;;;;;;5074361;28;20369;-79
2023/07/19 07:32:22;;;;;;;11.27;2.10;;;;;;;;;;5058098;28;20032;-79
2023/07/19 07:34:48;;;;;;;5.70;2.00;;;;;;;;;;5053894;28;20025;-79
2023/07/19 07:37:14;;;;;;;5.97;1.67;;;;;;;;;;5054204;28;20029;-78
2023/07/19 07:39:40;;;;;;;8.90;1.38;;;;;;;;;;5054302;28;20053;-78
2023/07/19 07:42:07;;;;;;;6.28;1.95;;;;;;;;;;5054526;28;20367;-79
2023/07/19 07:44:33;;;;;;;5.90;1.63;;;;;;;;;;5053988;28;20045;-79
2023/07/19 07:47:00;;;;;;;4.13;1.95;;;;;;;;;;5054975;28;20063;-78
2023/07/19 07:49:26;;;;;;;9.90;1.95;;;;;;;;;;5054949;28;20070;-78
2023/07/19 07:51:52;;;;;;;9.38;2.42;;;;;;;;;;5053765;28;20078;-79
2023/07/19 07:54:20;;;;;;;8.75;1.65;;;;;;;;;;5054631;28;20025;-79
2023/07/19 07:56:46;;;;;;;4.95;1.70;;;;;;;;;;5053988;28;20400;-79
2023/07/19 07:59:12;;;;;;;4.90;2.05;;;;;;;;;;5053638;28;20066;-79
2023/07/19 08:01:38;;;;;;;4.30;1.40;;;;;;;;;;5055038;28;20029;-78
2023/07/19 08:04:06;;;;;;;8.23;2.10;;;;;;;;;;5054857;28;20020;-79
2023/07/19 08:09:10;;;;;;;5.50;1.60;;;;;;;;;;5111453;27;20434;-78
2023/07/19 08:11:36;;;;;;;12.07;1.90;;;;;;;;;;5111757;28;20114;-78
2023/07/19 08:14:02;;;;;;;13.93;3.00;;;;;;;;;;5110249;28;20024;-78
2023/07/19 08:16:28;;;;;;;10.05;1.67;;;;;;;;;;5121641;28;20071;-79
2023/07/19 08:18:54;;;;;;;11.02;2.13;;;;;;;;;;5132437;27;20102;-79
2023/07/19 08:21:21;;;;;;;11.77;1.90;;;;;;;;;;5117613;27;20037;-79
2023/07/19 08:23:51;;;;;;;8.88;1.92;;;;;;;;;;5111044;28;20097;-79
2023/07/19 08:26:17;;;;;;;13.45;2.00;;;;;;;;;;5129689;27;20045;-79
2023/07/19 08:28:44;;;;;;;6.32;1.95;;;;;;;;;;5129546;28;20024;-79
2023/07/19 08:31:11;;;;;;;11.30;1.95;;;;;;;;;;5131623;27;20069;-79
2023/07/19 08:33:37;;;;;;;10.20;1.90;;;;;;;;;;5130947;28;20024;-79
2023/07/19 08:36:03;;;;;;;10.60;2.10;;;;;;;;;;5131298;27;20080;-79
2023/07/19 08:38:29;;;;;;;15.02;2.25;;;;;;;;;;5127064;28;20042;-80
2023/07/19 08:41:03;;;;;;;19.60;3.33;;;;;;;;;;5114644;28;20019;-80
2023/07/19 08:43:30;;;;;;;14.48;2.50;;;;;;;;;;5131336;27;20017;-79
2023/07/19 08:45:56;;;;;;;12.20;1.85;;;;;;;;;;5130433;27;20055;-80
2023/07/19 08:48:22;;;;;;;12.07;1.98;;;;;;;;;;5130211;27;20106;-79
2023/07/19 08:50:54;;;;;;;12.73;1.98;;;;;;;;;;5131303;27;20028;-79
2023/07/19 08:53:20;;;;;;;10.20;2.58;;;;;;;;;;5131849;27;20019;-79
2023/07/19 08:55:46;;;;;;;10.13;2.78;;;;;;;;;;5131144;27;20023;-79
2023/07/19 08:58:13;;;;;;;9.45;1.83;;;;;;;;;;5130986;28;20027;-80
2023/07/19 09:00:39;;;;;;;15.63;2.25;;;;;;;;;;5131535;27;20032;-80
2023/07/19 09:03:05;;;;;;;7.25;1.80;;;;;;;;;;5129630;28;20458;-80
2023/07/19 09:05:32;;;;;;;15.35;3.00;;;;;;;;;;5130859;27;20362;-79
2023/07/19 09:08:00;;;;;;;14.95;2.00;;;;;;;;;;5127883;28;20055;-80
2023/07/19 09:10:26;;;;;;;7.18;1.73;;;;;;;;;;5128756;28;20041;-79
2023/07/19 09:12:53;;;;;;;9.00;1.70;;;;;;;;;;5130259;28;20023;-79
2023/07/19 09:15:20;;;;;;;13.02;1.95;;;;;;;;;;5124745;28;20037;-80
2023/07/19 09:17:47;;;;;;;6.50;1.70;;;;;;;;;;5117390;28;20105;-80
2023/07/19 09:20:13;;;;;;;12.50;2.25;;;;;;;;;;5118557;27;20031;-80
2023/07/19 09:22:40;;;;;;;8.38;2.22;;;;;;;;;;5115395;28;20047;-80
2023/07/19 09:25:07;;;;;;;25.23;2.38;;;;;;;;;;5096624;28;20015;-80
2023/07/19 09:27:33;;;;;;;8.80;2.10;;;;;;;;;;5112205;28;20531;-80
2023/07/19 09:30:01;;;;;;;8.25;2.83;;;;;;;;;;5112176;28;20024;-81
2023/07/19 09:32:27;;;;;;;7.35;1.92;;;;;;;;;;5112477;28;20035;-80
2023/07/19 09:34:56;;;;;;;6.82;1.90;;;;;;;;;;5096442;28;20052;-79
2023/07/19 09:37:24;;;;;;;5.63;2.00;;;;;;;;;;5095982;28;20039;-80
2023/07/19 09:39:51;;;;;;;6.28;2.13;;;;;;;;;;5095025;28;20035;-80
2023/07/19 09:42:18;;;;;;;6.78;1.85;;;;;;;;;;5096610;28;20346;-80
2023/07/19 09:44:48;;;;;;;9.93;3.65;;;;;;;;;;5095106;28;20074;-81
2023/07/19 09:47:15;;;;;;;4.88;2.20;;;;;;;;;;5096251;28;20085;-81
2023/07/19 09:49:42;;;;;;;9.10;1.85;;;;;;;;;;5095567;28;20024;-80
2023/07/19 09:52:08;;;;;;;11.10;2.42;;;;;;;;;;5095949;28;20055;-80
2023/07/19 09:54:35;;;;;;;6.63;1.85;;;;;;;;;;5094821;28;20357;-81
2023/07/19 09:57:03;;;;;;;8.23;2.45;;;;;;;;;;5094715;28;20020;-81
2023/07/19 09:59:35;;;;;;;8.23;2.15;;;;;;;;;;5095442;28;20016;-81
2023/07/19 10:02:02;;;;;;;7.30;1.85;;;;;;;;;;5094398;28;20103;-81
2023/07/19 10:04:29;;;;;;;5.68;1.63;;;;;;;;;;5096134;28;20334;-81
2023/07/19 10:07:09;;;;;;;13.80;2.00;;;;;;;;;;5094226;28;20027;-81
2023/07/19 10:09:39;;;;;;;3.85;1.58;;;;;;;;;;5095653;28;20024;-81
2023/07/19 10:12:23;;;;;;;8.95;2.08;;;;;;;;;;5094419;28;20028;-82
2023/07/19 10:15:02;;;;;;;9.55;2.17;;;;;;;;;;5095736;28;20024;-81
2023/07/19 10:17:29;;;;;;;10.63;2.38;;;;;;;;;;5109480;28;20095;-81
2023/07/19 10:20:05;;;;;;;7.57;2.20;;;;;;;;;;5114541;28;20035;-82
2023/07/19 10:23:06;;;;;;;12.10;2.95;;;;;;;;;;5115891;28;20015;-80
2023/07/19 10:25:32;;;;;;;;;;;;;;;;;;5076604;28;20048;-81
2023/07/19 10:28:03;;;;;;;11.43;1.77;;;;;;;;;;5092365;28;20242;-81
2023/07/19 10:30:44;;;;;;;10.03;2.00;;;;;;;;;;5084767;28;20483;-80
2023/07/19 10:33:14;;;;;;;4.72;1.75;;;;;;;;;;5071949;28;20032;-80
2023/07/19 10:35:40;;;;;;;3.42;1.40;;;;;;;;;;5055434;28;20036;-81
2023/07/19 10:38:13;;;;;;;6.97;1.73;;;;;;;;;;5072312;28;20029;-80
2023/07/19 10:40:40;;;;;;;7.43;1.95;;;;;;;;;;5072088;28;20060;-81
2023/07/19 10:43:06;;;;;;;8.75;1.70;;;;;;;;;;5071958;28;20021;-80
2023/07/19 10:45:32;;;;;;;13.43;1.92;;;;;;;;;;5054802;28;20028;-81
2023/07/19 10:48:01;;;;;;;8.52;1.40;;;;;;;;;;5071729;28;20024;-81
2023/07/19 10:50:27;;;;;;;3.67;1.70;;;;;;;;;;5055533;28;20025;-81
2023/07/19 10:52:53;;;;;;;12.40;2.15;;;;;;;;;;5072429;28;20054;-81
2023/07/19 10:55:19;;;;;;;4.47;0.98;;;;;;;;;;5055332;28;20031;-81
2023/07/19 10:57:47;;;;;;;10.82;1.80;;;;;;;;;;5072143;28;20455;-81
2023/07/19 11:00:14;;;;;;;4.13;1.60;;;;;;;;;;5085322;28;20021;-81
2023/07/19 11:02:40;;;;;;;4.68;1.83;;;;;;;;;;5093466;28;20366;-80
2023/07/19 11:05:07;;;;;;;6.35;1.83;;;;;;;;;;5093439;28;20027;-80
2023/07/19 11:07:33;;;;;;;9.57;2.03;;;;;;;;;;5094647;28;20519;-81
2023/07/19 11:10:01;;;;;;;5.55;1.83;;;;;;;;;;5094417;28;20020;-82
2023/07/19 11:12:27;;;;;;;7.20;1.73;;;;;;;;;;5094578;28;20458;-79
2023/07/19 11:15:01;;;;;;;6.03;1.90;;;;;;;;;;5094479;28;20020;-79
2023/07/19 11:17:30;;;;;;;5.60;1.85;;;;;;;;;;5094508;28;20054;-79
2023/07/19 11:19:59;;;;;;;5.82;2.63;;;;;;;;;;5113563;28;20015;-79
2023/07/19 11:22:26;;;;;;;3.88;1.92;;;;;;;;;;5094283;28;20015;-79
2023/07/19 11:24:53;;;;;;;6.07;1.60;;;;;;;;;;5092420;28;20049;-79
2023/07/19 11:27:20;;;;;;;4.07;1.40;;;;;;;;;;5092638;28;20024;-79
2023/07/19 11:29:50;;;;;;;7.13;2.00;;;;;;;;;;5092874;28;20369;-79
2023/07/19 11:32:23;;;;;;;5.00;1.70;;;;;;;;;;5086246;28;20032;-80
2023/07/19 11:34:51;;;;;;;6.65;1.63;;;;;;;;;;5093919;28;20056;-79
2023/07/19 11:37:21;;;;;;;3.40;1.40;;;;;;;;;;5092096;28;20031;-80
2023/07/19 11:39:51;;;;;;;5.40;1.80;;;;;;;;;;5091943;28;20020;-80
2023/07/19 11:42:39;;;;;;;6.32;1.73;;;;;;;;;;5091490;28;20107;-79
2023/07/19 11:45:25;;;;;;;8.68;1.67;;;;;;;;;;5091656;28;20035;-79
2023/07/19 11:47:52;;;;;;;9.45;2.10;;;;;;;;;;5092616;28;20062;-79
2023/07/19 11:50:21;;;;;;;9.32;1.48;;;;;;;;;;5109179;28;20023;-79
2023/07/19 11:52:48;;;;;;;16.38;2.15;;;;;;;;;;5096971;28;20020;-79
2023/07/19 11:55:17;;;;;;;5.60;1.75;;;;;;;;;;5104224;28;20023;-79
2023/07/19 11:57:45;;;;;;;5.03;1.70;;;;;;;;;;5102482;28;20016;-79
2023/07/19 12:00:14;;;;;;;5.57;1.52;;;;;;;;;;5091377;28;20028;-80
2023/07/19 12:02:41;;;;;;;6.30;2.03;;;;;;;;;;5093170;28;20020;-80
2023/07/19 12:05:08;;;;;;;7.18;1.70;;;;;;;;;;5092791;28;20024;-79
2023/07/19 12:07:34;;;;;;;5.10;1.52;;;;;;;;;;5092942;28;20035;-79
2023/07/19 12:10:03;;;;;;;6.38;1.80;;;;;;;;;;5091459;28;20332;-80
2023/07/19 12:12:29;;;;;;;5.47;2.42;;;;;;;;;;5109112;28;20072;-79
2023/07/19 12:14:55;;;;;;;6.05;1.90;;;;;;;;;;5109505;28;20020;-79
2023/07/19 12:17:21;;;;;;;5.55;1.80;;;;;;;;;;5103051;28;20020;-79
2023/07/19 12:19:47;;;;;;;5.18;1.67;;;;;;;;;;5113342;28;20022;-79
2023/07/19 12:22:14;;;;;;;10.27;2.10;;;;;;;;;;5113540;28;20019;-79
2023/07/19 12:24:40;;;;;;;7.07;1.58;;;;;;;;;;5113246;28;20103;-79
2023/07/19 12:27:06;;;;;;;9.13;2.08;;;;;;;;;;5112696;28;20012;-79
2023/07/19 12:29:32;;;;;;;10.77;1.88;;;;;;;;;;5112010;28;20115;-79
2023/07/19 12:31:58;;;;;;;6.68;1.95;;;;;;;;;;5092066;28;20031;-79
2023/07/19 12:34:24;;;;;;;7.43;1.73;;;;;;;;;;5092730;28;20020;-79
2023/07/19 12:36:51;;;;;;;5.97;1.80;;;;;;;;;;5090273;28;20061;-79
2023/07/19 12:39:18;;;;;;;6.90;2.13;;;;;;;;;;5092007;28;20458;-79
2023/07/19 12:41:44;;;;;;;2.17;1.15;;;;;;;;;;5095119;28;20024;-79
2023/07/19 12:44:11;;;;;;;7.75;1.90;;;;;;;;;;5094130;28;20454;-79
2023/07/19 12:46:38;;;;;;;7.53;1.85;;;;;;;;;;5095712;28;20058;-79
2023/07/19 12:49:04;;;;;;;8.88;2.08;;;;;;;;;;5105388;28;20020;-79
2023/07/19 12:51:31;;;;;;;4.97;1.23;;;;;;;;;;5093818;28;20446;-79
2023/07/19 12:53:57;;;;;;;12.70;1.98;;;;;;;;;;5102177;28;20484;-79
2023/07/19 12:56:23;;;;;;;9.48;1.95;;;;;;;;;;5096059;28;20027;-79
2023/07/19 12:58:50;;;;;;;10.77;1.67;;;;;;;;;;5097341;28;20064;-79
2023/07/19 13:01:16;;;;;;;7.18;1.95;;;;;;;;;;5115504;28;20114;-81
2023/07/19 13:03:42;;;;;;;7.18;1.88;;;;;;;;;;5110933;28;20335;-81
2023/07/19 13:06:08;;;;;;;8.77;1.88;;;;;;;;;;5096436;28;20466;-81
2023/07/19 13:08:34;;;;;;;9.13;1.98;;;;;;;;;;5096344;28;20048;-81
2023/07/19 13:11:00;;;;;;;5.03;1.63;;;;;;;;;;5096008;28;20012;-81
2023/07/19 13:13:27;;;;;;;8.98;1.85;;;;;;;;;;5095152;28;20103;-81
2023/07/19 13:15:53;;;;;;;6.55;1.13;;;;;;;;;;5103443;28;20026;-81
2023/07/19 13:18:19;;;;;;;6.82;1.67;;;;;;;;;;5115959;28;20030;-81
2023/07/19 13:20:45;;;;;;;4.85;1.80;;;;;;;;;;5115172;28;20523;-81
2023/07/19 13:23:16;;;;;;;9.25;1.67;;;;;;;;;;5116075;28;20355;-80
2023/07/19 13:25:43;;;;;;;6.97;1.80;;;;;;;;;;5097032;28;20008;-80
2023/07/19 13:28:09;;;;;;;8.50;2.17;;;;;;;;;;5094782;28;20043;-80
2023/07/19 13:30:37;;;;;;;8.38;1.77;;;;;;;;;;5109445;28;20024;-80
2023/07/19 13:33:03;;;;;;;6.20;2.17;;;;;;;;;;5106636;28;20028;-80
2023/07/19 13:35:30;;;;;;;5.78;1.73;;;;;;;;;;5094041;28;20067;-80
2023/07/19 13:37:56;;;;;;;12.85;1.42;;;;;;;;;;5098064;28;20523;-79
2023/07/19 13:40:22;;;;;;;6.38;2.08;;;;;;;;;;5115812;28;20030;-80
2023/07/19 13:42:52;;;;;;;8.02;2.13;;;;;;;;;;5116400;28;20019;-80
2023/07/19 13:45:23;;;;;;;10.52;2.95;;;;;;;;;;5114339;28;20027;-80
2023/07/19 13:47:49;;;;;;;5.38;1.60;;;;;;;;;;5116564;28;20063;-80
2023/07/19 13:50:15;;;;;;;8.25;1.80;;;;;;;;;;5117017;28;20015;-82
2023/07/19 13:52:43;;;;;;;10.73;2.20;;;;;;;;;;5116085;28;20011;-81
2023/07/19 13:55:09;;;;;;;10.27;1.60;;;;;;;;;;5116572;28;20020;-81
2023/07/19 13:57:35;;;;;;;6.88;2.20;;;;;;;;;;5116076;28;20019;-81
2023/07/19 14:00:02;;;;;;;10.20;2.30;;;;;;;;;;5114982;28;20453;-81
2023/07/19 14:02:29;;;;;;;7.93;2.53;;;;;;;;;;5116518;28;20526;-81
2023/07/19 14:04:56;;;;;;;16.00;1.75;;;;;;;;;;5116266;28;20012;-79
2023/07/19 14:07:22;;;;;;;4.90;1.80;;;;;;;;;;5115474;28;20374;-79
2023/07/19 14:09:48;;;;;;;3.50;1.63;;;;;;;;;;5114681;28;20023;-79
2023/07/19 14:12:14;;;;;;;12.75;2.50;;;;;;;;;;5113967;28;20050;-79
2023/07/19 14:14:41;;;;;;;6.22;1.80;;;;;;;;;;5114257;28;20024;-79
2023/07/19 14:17:07;;;;;;;10.13;2.47;;;;;;;;;;5078144;28;20020;-79
2023/07/19 14:19:33;;;;;;;9.30;2.50;;;;;;;;;;5095450;28;20016;-79
2023/07/19 14:21:59;;;;;;;6.45;2.13;;;;;;;;;;5087516;28;20036;-79